createdAt,value
2022-08-22T00:02:14.009Z,22.90
2022-08-22T00:02:47.572Z,24.24
2022-08-22T00:02:57.556Z,23.91
2022-08-22T00:03:11.649Z,23.97
2022-08-22T00:05:05.536Z,22.84
2022-08-22T00:07:46.741Z,22.82
2022-08-22T00:10:25.519Z,22.79
2022-08-22T00:13:00.766Z,22.75
2022-08-22T00:15:43.668Z,22.71
2022-08-22T00:18:20.895Z,22.68
2022-08-22T00:21:17.325Z,22.65
2022-08-22T00:23:58.178Z,22.61
2022-08-22T00:26:45.678Z,22.58
2022-08-22T00:29:20.970Z,22.55
2022-08-22T00:32:10.300Z,22.52
2022-08-22T00:35:01.264Z,22.48
2022-08-22T00:37:45.259Z,22.44
2022-08-22T00:40:32.543Z,22.41
2022-08-22T00:43:22.444Z,22.37
2022-08-22T00:46:16.013Z,22.34
2022-08-22T00:49:12.245Z,22.31
2022-08-22T00:51:56.033Z,22.29
2022-08-22T00:54:36.671Z,22.28
2022-08-22T00:57:14.653Z,22.26
2022-08-22T01:00:18.356Z,22.25
2022-08-22T01:03:07.696Z,22.23
2022-08-22T01:06:05.095Z,22.20
2022-08-22T01:09:01.646Z,22.18
2022-08-22T01:11:44.132Z,22.16
2022-08-22T01:14:40.593Z,22.14
2022-08-22T01:17:25.133Z,22.13
2022-08-22T01:20:22.651Z,22.08
2022-08-22T01:23:09.861Z,22.04
2022-08-22T01:25:50.941Z,21.98
2022-08-22T01:28:28.802Z,21.94
2022-08-22T01:31:18.847Z,21.93
2022-08-22T01:34:12.771Z,21.90
2022-08-22T01:36:49.438Z,21.87
2022-08-22T01:39:27.759Z,21.83
2022-08-22T01:42:17.734Z,21.79
2022-08-22T01:45:26.279Z,21.74
2022-08-22T01:48:13.104Z,21.71
2022-08-22T01:50:50.856Z,21.67
2022-08-22T01:53:32.097Z,21.63
2022-08-22T01:56:24.048Z,21.61
2022-08-22T01:59:11.122Z,21.57
2022-08-22T02:02:16.998Z,21.54
2022-08-22T02:04:58.292Z,21.48
2022-08-22T02:07:32.919Z,21.42
2022-08-22T02:10:23.136Z,21.37
2022-08-22T02:13:23.353Z,21.35
2022-08-22T02:16:13.356Z,21.31
2022-08-22T02:19:08.305Z,21.28
2022-08-22T02:21:56.513Z,21.23
2022-08-22T02:24:47.923Z,21.20
2022-08-22T02:27:22.874Z,21.16
2022-08-22T02:30:00.366Z,21.12
2022-08-22T02:32:35.539Z,21.08
2022-08-22T02:35:13.011Z,21.05
2022-08-22T02:38:07.462Z,21.03
2022-08-22T02:40:42.978Z,21.00
2022-08-22T02:43:29.718Z,20.96
2022-08-22T02:46:21.158Z,20.93
2022-08-22T02:48:56.001Z,20.91
2022-08-22T02:51:55.277Z,20.89
2022-08-22T02:54:33.182Z,20.86
2022-08-22T02:57:17.312Z,20.84
2022-08-22T03:00:30.737Z,20.81
2022-08-22T03:02:46.557Z,20.78
2022-08-22T03:05:30.790Z,20.77
2022-08-22T03:08:30.813Z,20.76
2022-08-22T03:11:09.228Z,20.76
2022-08-22T03:14:14.363Z,20.75
2022-08-22T03:16:52.864Z,20.74
2022-08-22T03:19:36.962Z,20.71
2022-08-22T03:22:14.439Z,20.69
2022-08-22T03:25:07.679Z,20.67
2022-08-22T03:27:54.826Z,20.66
2022-08-22T03:30:44.702Z,20.66
2022-08-22T03:33:19.711Z,20.66
2022-08-22T03:36:09.739Z,20.66
2022-08-22T03:39:09.753Z,20.65
2022-08-22T03:41:53.302Z,20.67
2022-08-22T03:44:44.977Z,20.69
2022-08-22T03:47:34.662Z,20.70
2022-08-22T03:50:27.516Z,20.73
2022-08-22T03:53:18.449Z,20.80
2022-08-22T03:55:47.881Z,20.84
2022-08-22T03:58:43.087Z,20.87
2022-08-22T04:01:37.684Z,20.89
2022-08-22T04:04:32.104Z,20.90
2022-08-22T04:07:09.360Z,20.93
2022-08-22T04:10:04.957Z,20.95
2022-08-22T04:13:11.484Z,20.99
2022-08-22T04:15:52.880Z,21.01
2022-08-22T04:18:51.962Z,21.07
2022-08-22T04:21:43.797Z,21.15
2022-08-22T04:24:38.177Z,21.26
2022-08-22T04:27:37.707Z,21.33
2022-08-22T04:30:18.799Z,21.39
2022-08-22T04:33:18.104Z,21.46
2022-08-22T04:35:58.789Z,21.56
2022-08-22T04:38:43.112Z,21.65
2022-08-22T04:41:24.929Z,21.74
2022-08-22T04:44:00.194Z,21.82
2022-08-22T04:46:45.006Z,21.92
2022-08-22T04:49:22.517Z,22.02
2022-08-22T04:52:00.383Z,22.11
2022-08-22T04:55:05.900Z,22.18
2022-08-22T04:58:06.693Z,22.24
2022-08-22T05:00:51.344Z,22.31
2022-08-22T05:03:23.269Z,22.35
2022-08-22T05:05:56.509Z,22.39
2022-08-22T05:08:31.258Z,22.45
2022-08-22T05:11:04.051Z,22.50
2022-08-22T05:13:51.114Z,22.55
2022-08-22T05:16:26.721Z,22.59
2022-08-22T05:19:04.096Z,22.62
2022-08-22T05:21:38.747Z,22.64
2022-08-22T05:24:13.244Z,22.66
2022-08-22T05:26:48.040Z,22.71
2022-08-22T05:29:21.863Z,22.74
2022-08-22T05:32:02.968Z,22.78
2022-08-22T05:34:40.313Z,22.82
2022-08-22T05:37:15.782Z,22.90
2022-08-22T05:39:50.168Z,22.95
2022-08-22T05:42:27.809Z,22.99
2022-08-22T05:45:01.915Z,23.04
2022-08-22T05:47:39.972Z,23.07
2022-08-22T05:50:26.831Z,23.14
2022-08-22T05:53:10.831Z,23.18
2022-08-22T05:55:57.064Z,23.22
2022-08-22T05:58:35.120Z,23.28
2022-08-22T06:01:22.283Z,23.33
2022-08-22T06:04:09.665Z,23.42
2022-08-22T06:07:09.123Z,23.52
2022-08-22T06:09:51.428Z,23.61
2022-08-22T06:12:32.189Z,23.70
2022-08-22T06:15:20.928Z,23.80
2022-08-22T06:17:55.117Z,23.91
2022-08-22T06:20:45.463Z,24.03
2022-08-22T06:23:25.337Z,24.14
2022-08-22T06:26:00.029Z,24.23
2022-08-22T06:28:35.053Z,24.30
2022-08-22T06:31:07.927Z,24.34
2022-08-22T06:33:42.376Z,24.39
2022-08-22T06:36:32.012Z,24.44
2022-08-22T06:39:12.932Z,24.48
2022-08-22T06:41:51.268Z,24.53
2022-08-22T06:44:32.360Z,24.55
2022-08-22T06:47:07.554Z,24.62
2022-08-22T06:49:40.345Z,24.67
2022-08-22T06:52:20.410Z,24.73
2022-08-22T06:54:55.301Z,24.79
2022-08-22T06:57:46.692Z,24.85
2022-08-22T07:00:21.359Z,24.91
2022-08-22T07:03:01.533Z,24.99
2022-08-22T07:05:39.069Z,25.05
2022-08-22T07:08:20.344Z,25.16
2022-08-22T07:11:12.777Z,25.22
2022-08-22T07:13:53.608Z,25.32
2022-08-22T07:16:48.763Z,25.43
2022-08-22T07:19:26.259Z,25.54
2022-08-22T07:21:58.805Z,25.61
2022-08-22T07:24:32.793Z,25.69
2022-08-22T07:27:23.341Z,25.77
2022-08-22T07:30:12.893Z,25.83
2022-08-22T07:33:26.831Z,25.92
2022-08-22T07:35:39.305Z,26.00
2022-08-22T07:38:32.178Z,26.09
2022-08-22T07:41:13.153Z,26.15
2022-08-22T07:43:57.783Z,26.22
2022-08-22T07:46:37.639Z,26.30
2022-08-22T07:49:22.599Z,26.36
2022-08-22T07:51:57.882Z,26.46
2022-08-22T07:54:33.020Z,26.56
2022-08-22T07:57:10.871Z,26.66
2022-08-22T07:59:45.726Z,26.76
2022-08-22T08:02:18.687Z,26.84
2022-08-22T08:04:51.926Z,26.90
2022-08-22T08:07:27.081Z,26.97
2022-08-22T08:10:02.621Z,27.03
2022-08-22T08:12:37.373Z,27.07
2022-08-22T08:15:12.290Z,27.07
2022-08-22T08:17:44.279Z,27.09
2022-08-22T08:20:17.812Z,27.18
2022-08-22T08:22:49.559Z,27.28
2022-08-22T08:25:24.163Z,27.34
2022-08-22T08:28:14.189Z,27.37
2022-08-22T08:30:48.739Z,27.41
2022-08-22T08:33:24.866Z,27.51
2022-08-22T08:36:05.733Z,27.62
2022-08-22T08:38:40.869Z,27.73
2022-08-22T08:41:38.477Z,27.84
2022-08-22T08:44:36.020Z,27.93
2022-08-22T08:47:22.939Z,28.04
2022-08-22T08:50:26.638Z,28.14
2022-08-22T08:53:23.990Z,28.23
2022-08-22T08:56:04.718Z,28.31
2022-08-22T08:58:39.742Z,28.42
2022-08-22T09:01:38.754Z,28.50
2022-08-22T09:04:47.038Z,28.55
2022-08-22T09:07:54.287Z,28.59
2022-08-22T09:10:45.688Z,28.63
2022-08-22T09:13:24.257Z,28.68
2022-08-22T09:16:05.240Z,28.73
2022-08-22T09:18:45.040Z,28.73
2022-08-22T09:21:36.867Z,28.73
2022-08-22T09:24:37.858Z,28.73
2022-08-22T09:27:26.451Z,28.74
2022-08-22T09:30:08.892Z,28.76
2022-08-22T09:33:03.415Z,28.79
2022-08-22T09:35:58.047Z,28.81
2022-08-22T09:38:40.448Z,28.86
2022-08-22T09:41:36.743Z,28.88
2022-08-22T09:44:12.039Z,28.93
2022-08-22T09:46:53.362Z,28.98
2022-08-22T09:49:32.879Z,29.04
2022-08-22T09:52:14.361Z,29.11
2022-08-22T09:54:47.670Z,29.19
2022-08-22T09:57:39.809Z,29.27
2022-08-22T10:00:25.911Z,29.32
2022-08-22T10:03:03.770Z,29.36
2022-08-22T10:05:48.197Z,29.37
2022-08-22T10:08:48.758Z,29.40
2022-08-22T10:11:28.986Z,29.49
2022-08-22T10:14:22.317Z,29.54
2022-08-22T10:17:16.023Z,29.60
2022-08-22T10:19:52.688Z,29.67
2022-08-22T10:22:44.769Z,29.69
2022-08-22T10:25:35.209Z,29.72
2022-08-22T10:28:22.106Z,29.74
2022-08-22T10:31:01.568Z,29.76
2022-08-22T10:33:39.777Z,29.79
2022-08-22T10:36:23.775Z,29.79
2022-08-22T10:38:59.252Z,29.79
2022-08-22T10:41:45.414Z,29.82
2022-08-22T10:44:23.045Z,29.82
2022-08-22T10:47:04.109Z,29.80
2022-08-22T10:49:51.124Z,29.81
2022-08-22T10:52:28.933Z,29.84
2022-08-22T10:55:05.681Z,29.86
2022-08-22T10:58:07.046Z,29.90
2022-08-22T11:00:59.672Z,29.96
2022-08-22T11:03:40.713Z,30.02
2022-08-22T11:06:19.067Z,30.08
2022-08-22T11:08:54.381Z,30.12
2022-08-22T11:11:38.682Z,30.17
2022-08-22T11:14:42.415Z,30.21
2022-08-22T11:17:28.250Z,30.25
2022-08-22T11:20:05.950Z,30.29
2022-08-22T11:22:48.844Z,30.34
2022-08-22T11:25:35.951Z,30.39
2022-08-22T11:28:02.977Z,30.42
2022-08-22T11:30:48.348Z,30.49
2022-08-22T11:33:47.438Z,30.55
2022-08-22T11:36:17.466Z,30.61
2022-08-22T11:39:18.652Z,30.66
2022-08-22T11:42:02.236Z,30.70
2022-08-22T11:44:50.183Z,30.75
2022-08-22T11:47:12.961Z,30.78
2022-08-22T11:50:13.419Z,30.79
2022-08-22T11:52:51.942Z,30.82
2022-08-22T11:55:42.507Z,30.87
2022-08-22T11:58:28.686Z,30.90
2022-08-22T12:01:03.145Z,30.93
2022-08-22T12:03:51.059Z,30.95
2022-08-22T12:06:51.690Z,30.96
2022-08-22T12:09:35.986Z,30.97
2022-08-22T12:12:17.087Z,30.98
2022-08-22T12:14:54.691Z,30.99
2022-08-22T12:17:55.064Z,31.02
2022-08-22T12:20:45.435Z,31.02
2022-08-22T12:23:49.510Z,31.06
2022-08-22T12:26:25.282Z,31.09
2022-08-22T12:29:17.096Z,31.13
2022-08-22T12:32:27.505Z,31.16
2022-08-22T12:35:14.659Z,31.19
2022-08-22T12:37:52.823Z,31.21
2022-08-22T12:40:38.295Z,31.25
2022-08-22T12:43:23.225Z,31.28
2022-08-22T12:46:30.690Z,31.30
2022-08-22T12:49:22.093Z,31.33
2022-08-22T12:52:09.221Z,31.36
2022-08-22T12:54:51.177Z,31.38
2022-08-22T12:57:44.570Z,31.39
2022-08-22T13:00:31.715Z,31.41
2022-08-22T13:03:17.983Z,31.42
2022-08-22T13:05:57.128Z,31.44
2022-08-22T13:08:26.552Z,31.45
2022-08-22T13:11:01.633Z,31.47
2022-08-22T13:13:39.874Z,31.50
2022-08-22T13:16:15.767Z,31.52
2022-08-22T13:18:56.731Z,31.51
2022-08-22T13:21:34.943Z,31.51
2022-08-22T13:24:22.862Z,31.51
2022-08-22T13:26:56.952Z,31.51
2022-08-22T13:29:43.483Z,31.52
2022-08-22T13:32:21.396Z,31.54
2022-08-22T13:34:56.865Z,31.55
2022-08-22T13:37:34.706Z,31.58
2022-08-22T13:40:10.126Z,31.59
2022-08-22T13:42:49.883Z,31.60
2022-08-22T13:45:27.760Z,31.61
2022-08-22T13:48:03.974Z,31.62
2022-08-22T13:50:53.054Z,31.63
2022-08-22T13:53:16.183Z,31.64
2022-08-22T13:55:54.980Z,31.64
2022-08-22T13:58:37.533Z,31.64
2022-08-22T14:01:31.425Z,31.66
2022-08-22T14:04:34.744Z,31.66
2022-08-22T14:07:06.503Z,31.66
2022-08-22T14:09:56.802Z,31.66
2022-08-22T14:12:50.135Z,31.67
2022-08-22T14:15:13.128Z,31.67
2022-08-22T14:17:48.347Z,31.66
2022-08-22T14:20:32.622Z,31.66
2022-08-22T14:23:17.577Z,31.64
2022-08-22T14:25:49.576Z,31.64
2022-08-22T14:28:29.847Z,31.63
2022-08-22T14:31:13.547Z,31.62
2022-08-22T14:33:51.346Z,31.60
2022-08-22T14:36:25.570Z,31.57
2022-08-22T14:39:01.314Z,31.55
2022-08-22T14:41:52.817Z,31.53
2022-08-22T14:44:33.835Z,31.51
2022-08-22T14:47:30.342Z,31.46
2022-08-22T14:49:52.971Z,31.44
2022-08-22T14:52:36.789Z,31.42
2022-08-22T14:55:12.054Z,31.38
2022-08-22T14:57:51.592Z,31.34
2022-08-22T15:00:29.880Z,31.31
2022-08-22T15:03:10.702Z,31.30
2022-08-22T15:05:45.612Z,31.30
2022-08-22T15:08:48.490Z,31.30
2022-08-22T15:11:25.213Z,31.33
2022-08-22T15:14:12.706Z,31.29
2022-08-22T15:16:53.387Z,31.23
2022-08-22T15:19:41.259Z,31.15
2022-08-22T15:22:25.716Z,31.08
2022-08-22T15:25:18.231Z,30.98
2022-08-22T15:27:59.670Z,30.90
2022-08-22T15:30:44.267Z,30.83
2022-08-22T15:33:19.854Z,30.74
2022-08-22T15:35:52.925Z,30.66
2022-08-22T15:38:36.427Z,30.58
2022-08-22T15:41:36.575Z,30.52
2022-08-22T15:44:32.492Z,30.47
2022-08-22T15:47:11.840Z,30.39
2022-08-22T15:49:52.995Z,30.30
2022-08-22T15:52:28.666Z,30.20
2022-08-22T15:55:19.156Z,30.13
2022-08-22T15:58:02.117Z,30.05
2022-08-22T16:00:36.625Z,29.97
2022-08-22T16:03:29.993Z,29.89
2022-08-22T16:06:07.396Z,29.81
2022-08-22T16:08:50.212Z,29.71
2022-08-22T16:11:33.068Z,29.62
2022-08-22T16:14:21.246Z,29.54
2022-08-22T16:17:09.533Z,29.46
2022-08-22T16:19:42.075Z,29.37
2022-08-22T16:22:14.380Z,29.26
2022-08-22T16:24:55.516Z,29.19
2022-08-22T16:27:28.131Z,29.12
2022-08-22T16:30:08.877Z,29.04
2022-08-22T16:32:40.701Z,28.98
2022-08-22T16:35:12.597Z,28.92
2022-08-22T16:37:47.973Z,28.86
2022-08-22T16:40:24.695Z,28.79
2022-08-22T16:43:17.591Z,28.73
2022-08-22T16:45:49.351Z,28.68
2022-08-22T16:48:37.693Z,28.61
2022-08-22T16:51:18.951Z,28.55
2022-08-22T16:54:06.465Z,28.48
2022-08-22T16:57:01.200Z,28.41
2022-08-22T16:59:38.786Z,28.32
2022-08-22T17:02:29.151Z,28.24
2022-08-22T17:05:07.042Z,28.18
2022-08-22T17:07:59.044Z,28.09
2022-08-22T17:10:39.658Z,27.99
2022-08-22T17:13:15.121Z,27.92
2022-08-22T17:16:05.971Z,27.84
2022-08-22T17:18:44.129Z,27.74
2022-08-22T17:21:28.652Z,27.64
2022-08-22T17:24:31.544Z,27.55
2022-08-22T17:26:55.127Z,27.44
2022-08-22T17:29:39.361Z,27.34
2022-08-22T17:32:17.214Z,27.24
2022-08-22T17:34:52.148Z,27.16
2022-08-22T17:37:42.016Z,27.08
2022-08-22T17:40:23.356Z,27.01
2022-08-22T17:43:16.745Z,26.94
2022-08-22T17:46:13.383Z,26.85
2022-08-22T17:48:49.076Z,26.77
2022-08-22T17:51:33.098Z,26.70
2022-08-22T17:54:29.674Z,26.65
2022-08-22T17:57:08.001Z,26.59
2022-08-22T17:59:55.261Z,26.52
2022-08-22T18:02:46.381Z,26.46
2022-08-22T18:05:21.235Z,26.40
2022-08-22T18:08:37.524Z,26.33
2022-08-22T18:10:58.014Z,26.27
2022-08-22T18:13:41.730Z,26.20
2022-08-22T18:16:33.078Z,26.15
2022-08-22T18:19:20.030Z,26.10
2022-08-22T18:22:02.626Z,26.03
2022-08-22T18:25:02.411Z,25.97
2022-08-22T18:27:53.434Z,25.91
2022-08-22T18:30:36.803Z,25.85
2022-08-22T18:33:32.797Z,25.80
2022-08-22T18:36:15.828Z,25.76
2022-08-22T18:39:04.412Z,25.73
2022-08-22T18:41:39.586Z,25.70
2022-08-22T18:44:12.874Z,25.68
2022-08-22T18:46:47.319Z,25.66
2022-08-22T18:49:26.706Z,25.62
2022-08-22T18:52:14.001Z,25.59
2022-08-22T18:54:55.227Z,25.55
2022-08-22T18:57:46.704Z,25.49
2022-08-22T19:00:21.777Z,25.42
2022-08-22T19:03:06.503Z,25.34
2022-08-22T19:05:55.275Z,25.30
2022-08-22T19:08:54.074Z,25.25
2022-08-22T19:11:35.137Z,25.24
2022-08-22T19:14:16.270Z,25.24
2022-08-22T19:17:03.387Z,25.25
2022-08-22T19:19:59.719Z,25.27
2022-08-22T19:22:35.390Z,25.32
2022-08-22T19:25:27.289Z,25.36
2022-08-22T19:28:11.547Z,25.39
2022-08-22T19:30:49.236Z,25.44
2022-08-22T19:33:41.938Z,25.51
2022-08-22T19:36:16.228Z,25.55
2022-08-22T19:38:57.626Z,25.60
2022-08-22T19:41:57.480Z,25.64
2022-08-22T19:44:38.653Z,25.67
2022-08-22T19:47:24.275Z,25.69
2022-08-22T19:50:07.551Z,25.71
2022-08-22T19:53:08.738Z,25.75
2022-08-22T19:55:45.169Z,25.78
2022-08-22T19:58:33.184Z,25.79
2022-08-22T20:01:11.314Z,25.80
2022-08-22T20:03:58.158Z,25.82
2022-08-22T20:06:44.612Z,25.82
2022-08-22T20:09:39.040Z,25.83
2022-08-22T20:12:25.649Z,25.81
2022-08-22T20:14:57.521Z,25.80
2022-08-22T20:17:41.510Z,25.79
2022-08-22T20:20:30.501Z,25.79
2022-08-22T20:22:59.458Z,25.77
2022-08-22T20:25:48.007Z,25.73
2022-08-22T20:28:47.187Z,25.70
2022-08-22T20:31:28.799Z,25.66
2022-08-22T20:34:03.451Z,25.62
2022-08-22T20:36:35.321Z,25.57
2022-08-22T20:39:11.841Z,25.52
2022-08-22T20:41:46.645Z,25.46
2022-08-22T20:44:24.611Z,25.42
2022-08-22T20:47:19.402Z,25.39
2022-08-22T20:50:02.957Z,25.38
2022-08-22T20:52:37.760Z,25.37
2022-08-22T20:55:31.650Z,25.34
2022-08-22T20:58:07.838Z,25.32
2022-08-22T21:00:48.497Z,25.28
2022-08-22T21:03:43.140Z,25.24
2022-08-22T21:06:17.266Z,25.20
2022-08-22T21:08:51.281Z,25.16
2022-08-22T21:11:42.024Z,25.10
2022-08-22T21:14:25.208Z,25.05
2022-08-22T21:16:57.317Z,25.01
2022-08-22T21:19:30.483Z,24.97
2022-08-22T21:22:16.564Z,24.94
2022-08-22T21:24:48.533Z,24.91
2022-08-22T21:27:24.463Z,24.86
2022-08-22T21:29:56.250Z,24.82
2022-08-22T21:32:42.865Z,24.77
2022-08-22T21:35:31.635Z,24.72
2022-08-22T21:38:03.815Z,24.66
2022-08-22T21:40:38.220Z,24.60
2022-08-22T21:43:15.362Z,24.55
2022-08-22T21:45:47.373Z,24.51
2022-08-22T21:48:40.655Z,24.46
2022-08-22T21:51:33.804Z,24.39
2022-08-22T21:54:29.369Z,24.33
2022-08-22T21:57:04.813Z,24.26
2022-08-22T21:59:50.981Z,24.19
2022-08-22T22:02:37.451Z,24.13
2022-08-22T22:05:17.930Z,24.08
2022-08-22T22:07:49.839Z,24.02
2022-08-22T22:10:23.320Z,23.97
2022-08-22T22:12:58.875Z,23.92
2022-08-22T22:15:32.961Z,23.88
2022-08-22T22:18:06.408Z,23.84
2022-08-22T22:20:38.747Z,23.81
2022-08-22T22:23:11.623Z,23.78
2022-08-22T22:25:43.875Z,23.74
2022-08-22T22:28:25.207Z,23.72
2022-08-22T22:30:57.043Z,23.68
2022-08-22T22:33:31.665Z,23.66
2022-08-22T22:36:13.198Z,23.63
2022-08-22T22:38:45.193Z,23.58
2022-08-22T22:41:17.031Z,23.54
2022-08-22T22:43:49.213Z,23.52
2022-08-22T22:46:21.582Z,23.47
2022-08-22T22:48:54.003Z,23.43
2022-08-22T22:51:26.310Z,23.38
2022-08-22T22:53:58.631Z,23.35
2022-08-22T22:56:30.743Z,23.31
2022-08-22T22:59:12.641Z,23.27
2022-08-22T23:01:37.992Z,23.24
2022-08-22T23:04:09.786Z,23.21
2022-08-22T23:06:41.649Z,23.19
2022-08-22T23:09:13.713Z,23.16
2022-08-22T23:11:46.006Z,23.13
2022-08-22T23:14:18.465Z,23.08
2022-08-22T23:16:50.471Z,23.05
2022-08-22T23:19:22.258Z,23.03
2022-08-22T23:21:59.090Z,23.02
2022-08-22T23:24:32.752Z,22.99
2022-08-22T23:27:06.232Z,22.94
2022-08-22T23:29:41.093Z,22.92
2022-08-22T23:32:13.515Z,22.90
2022-08-22T23:34:48.774Z,22.85
2022-08-22T23:37:21.878Z,22.83
2022-08-22T23:39:53.617Z,22.79
2022-08-22T23:42:25.305Z,22.73
2022-08-22T23:44:57.072Z,22.69
2022-08-22T23:47:28.860Z,22.66
2022-08-22T23:50:05.968Z,22.65
2022-08-22T23:52:34.220Z,22.61
2022-08-22T23:55:06.250Z,22.58
2022-08-22T23:57:37.833Z,22.56
